Accueil
METAR-TAF:

METAR-TAF

Aéroports :

Base aérienne de l'OTAN de Geilenkirchen

Geilenkirchen, Allemagne

latitude: 50-57-39N, longitude: 006-2-33E, altitude: 90 m

METAR: absent

Heure: 06:00 (04:00 UTC)

Prévision

Le bulletin a été fait il y a 14 heures et 0 minutes, à 14:00 UTC
Prévision valable du 10 à 15 UTC au 11 à 06 UTC
Vent 10 kt de nord-ouest avec des rafales jusqu'à 20 kt
Visibilité 10 km ou plus
Nuages épars à une hauteur de 2500 ft
Evoluant progressivement
du 10 à 16 UTC au 10 à 18 UTC
Vent 7 kt de ouest/nord-ouest
Evoluant progressivement
du 10 à 21 UTC au 20 à 23 UTC
Vent 3 kt de ouest
Probabilité 30% :
Temporairement
du 11 à 03 UTC au 11 à 05 UTC
Visibilité: 7000 m
Brouillard mince

TAF: ETNG 101400Z 1015/1106 31010G20KT 9999 SCT025 BECMG 1016/1018 30007KT BECMG 1021/2023 27003KT PROB30 TEMPO 1103/1105 7000 MIFG

Observations et prévisions météorologiques de plus de 4000 aéroports (messages METAR et TAF).

Les stations disponibles sont représentées par des disques jaunes et rouges sur la carte.

Passer la souris dessus pour voir le nom de la station.

Cliquer dessus pour voir les observations et prévisions météorologiques.

Pour changer de carte: cliquez sur les boutons verts avec une croix noire pour zoomer, sur le bouton vert avec un tiret pour effectuer un zoom arrière, ou sur les flèches vertes pour les cartes adjacentes.


METAR-TAF: